createdAt,value
2018-02-19T00:01:50.735Z,30.98
2018-02-19T00:04:18.157Z,30.35
2018-02-19T00:06:45.585Z,30.00
2018-02-19T00:09:13.023Z,29.67
2018-02-19T00:11:40.448Z,27.52
2018-02-19T00:14:07.882Z,29.02
2018-02-19T00:16:35.303Z,26.48
2018-02-19T00:19:02.732Z,27.77
2018-02-19T00:21:30.159Z,28.05
2018-02-19T00:23:57.579Z,28.75
2018-02-19T00:26:25.002Z,30.23
2018-02-19T00:28:52.437Z,29.12
2018-02-19T00:31:19.855Z,30.45
2018-02-19T00:33:47.275Z,28.30
2018-02-19T00:36:14.707Z,27.37
2018-02-19T00:38:42.140Z,28.33
2018-02-19T00:41:09.575Z,28.45
2018-02-19T00:43:37.007Z,29.12
2018-02-19T00:46:04.439Z,30.80
2018-02-19T00:48:31.872Z,29.65
2018-02-19T00:50:59.291Z,28.87
2018-02-19T00:53:26.716Z,32.42
2018-02-19T00:55:54.137Z,31.85
2018-02-19T00:58:21.575Z,32.63
2018-02-19T01:00:48.982Z,31.62
2018-02-19T01:03:16.425Z,31.95
2018-02-19T01:05:43.852Z,33.42
2018-02-19T01:08:11.274Z,33.97
2018-02-19T01:10:38.719Z,33.20
2018-02-19T01:13:06.149Z,35.63
2018-02-19T01:15:33.591Z,34.30
2018-02-19T01:18:01.033Z,35.15
2018-02-19T01:20:28.455Z,34.22
2018-02-19T01:22:55.874Z,32.70
2018-02-19T01:25:23.306Z,34.22
2018-02-19T01:27:50.728Z,35.63
2018-02-19T01:30:18.142Z,32.88
2018-02-19T01:32:45.579Z,32.40
2018-02-19T01:35:12.995Z,30.55
2018-02-19T01:37:40.409Z,32.33
2018-02-19T01:40:07.843Z,30.17
2018-02-19T01:42:35.262Z,30.70
2018-02-19T01:45:02.684Z,32.03
2018-02-19T01:47:30.113Z,32.28
2018-02-19T01:50:09.227Z,30.70
2018-02-19T01:52:36.662Z,31.60
2018-02-19T01:55:04.082Z,31.70
2018-02-19T01:57:31.506Z,29.92
2018-02-19T01:59:58.939Z,31.77
2018-02-19T02:02:26.362Z,28.10
2018-02-19T02:04:53.780Z,29.08
2018-02-19T02:07:21.216Z,30.25
2018-02-19T02:09:48.639Z,29.63
2018-02-19T02:12:16.071Z,27.42
2018-02-19T02:14:43.498Z,29.92
2018-02-19T02:17:10.919Z,28.65
2018-02-19T02:19:38.343Z,28.40
2018-02-19T02:22:05.775Z,28.85
2018-02-19T02:24:33.166Z,29.15
2018-02-19T02:27:00.614Z,28.58
2018-02-19T02:29:28.054Z,26.92
2018-02-19T02:31:55.481Z,30.77
2018-02-19T02:34:22.894Z,28.70
2018-02-19T02:36:50.324Z,27.48
2018-02-19T02:39:17.753Z,29.00
2018-02-19T02:41:45.162Z,30.58
2018-02-19T02:44:12.611Z,28.62
2018-02-19T02:46:40.028Z,29.00
2018-02-19T02:49:07.451Z,30.50
2018-02-19T02:51:34.882Z,29.95
2018-02-19T02:54:02.303Z,29.60
2018-02-19T02:56:29.743Z,29.10
2018-02-19T02:58:57.172Z,30.00
2018-02-19T03:01:24.590Z,28.12
2018-02-19T03:03:52.020Z,28.65
2018-02-19T03:06:19.460Z,28.70
2018-02-19T03:08:46.881Z,27.58
2018-02-19T03:11:14.300Z,30.85
2018-02-19T03:13:41.738Z,30.65
2018-02-19T03:16:09.160Z,30.83
2018-02-19T03:18:36.578Z,30.98
2018-02-19T03:21:04.039Z,29.15
2018-02-19T03:23:31.455Z,30.08
2018-02-19T03:25:58.875Z,30.10
2018-02-19T03:28:26.307Z,29.65
2018-02-19T03:30:53.736Z,28.52
2018-02-19T03:33:21.158Z,29.48
2018-02-19T03:35:48.595Z,28.67
2018-02-19T03:38:16.020Z,27.42
2018-02-19T03:40:43.443Z,31.35
2018-02-19T03:43:10.879Z,31.45
2018-02-19T03:45:38.294Z,29.35
2018-02-19T03:48:05.712Z,27.83
2018-02-19T03:50:33.138Z,29.98
2018-02-19T03:53:00.558Z,27.40
2018-02-19T03:55:27.983Z,29.35
2018-02-19T03:57:55.416Z,28.98
2018-02-19T04:00:22.843Z,29.75
2018-02-19T04:02:50.259Z,29.02
2018-02-19T04:05:17.694Z,30.65
2018-02-19T04:07:45.106Z,29.75
2018-02-19T04:10:12.532Z,29.10
2018-02-19T04:12:39.963Z,29.52
2018-02-19T04:15:07.384Z,31.83
2018-02-19T04:17:34.802Z,31.17
2018-02-19T04:20:02.285Z,32.00
2018-02-19T04:22:29.657Z,30.67
2018-02-19T04:24:57.071Z,31.48
2018-02-19T04:27:24.511Z,31.35
2018-02-19T04:29:51.931Z,30.95
2018-02-19T04:32:19.357Z,31.37
2018-02-19T04:34:46.787Z,30.17
2018-02-19T04:37:14.202Z,31.55
2018-02-19T04:39:41.628Z,29.92
2018-02-19T04:42:09.059Z,31.42
2018-02-19T04:44:39.281Z,32.85
2018-02-19T04:47:06.698Z,31.70
2018-02-19T04:49:34.139Z,30.33
2018-02-19T04:52:01.587Z,30.48
2018-02-19T04:54:29.020Z,33.60
2018-02-19T04:56:56.454Z,29.80
2018-02-19T04:59:23.869Z,29.55
2018-02-19T05:01:51.291Z,29.30
2018-02-19T05:04:18.726Z,30.05
2018-02-19T05:06:46.165Z,29.15
2018-02-19T05:09:13.589Z,32.15
2018-02-19T05:11:41.034Z,28.23
2018-02-19T05:14:08.463Z,29.45
2018-02-19T05:16:35.887Z,26.17
2018-02-19T05:19:03.327Z,26.50
2018-02-19T05:21:30.746Z,27.35
2018-02-19T05:23:58.175Z,25.42
2018-02-19T05:26:25.611Z,26.62
2018-02-19T05:28:53.027Z,27.25
2018-02-19T05:31:20.452Z,27.70
2018-02-19T05:33:47.891Z,27.85
2018-02-19T05:36:15.316Z,27.50
2018-02-19T05:38:42.737Z,27.52
2018-02-19T05:41:11.010Z,26.48
2018-02-19T05:43:38.427Z,27.30
2018-02-19T05:46:05.858Z,28.50
2018-02-19T05:48:33.310Z,27.40
2018-02-19T05:51:00.747Z,26.83
2018-02-19T05:53:28.175Z,28.33
2018-02-19T05:55:55.616Z,27.58
2018-02-19T05:58:23.039Z,28.12
2018-02-19T06:00:50.478Z,27.77
2018-02-19T06:03:17.923Z,27.37
2018-02-19T06:05:45.345Z,27.55
2018-02-19T06:08:12.771Z,28.70
2018-02-19T06:10:40.216Z,27.33
2018-02-19T06:13:07.648Z,28.55
2018-02-19T06:15:35.072Z,26.85
2018-02-19T06:18:02.522Z,28.05
2018-02-19T06:20:29.948Z,29.42
2018-02-19T06:22:57.362Z,28.65
2018-02-19T06:25:24.803Z,26.40
2018-02-19T06:27:52.228Z,26.98
2018-02-19T06:30:19.655Z,27.05
2018-02-19T06:32:47.108Z,27.87
2018-02-19T06:35:14.532Z,28.00
2018-02-19T06:37:41.951Z,30.20
2018-02-19T06:40:09.387Z,28.48
2018-02-19T06:42:36.811Z,29.15
2018-02-19T06:45:04.235Z,29.58
2018-02-19T06:47:31.680Z,28.75
2018-02-19T06:49:59.099Z,28.55
2018-02-19T06:52:26.523Z,28.60
2018-02-19T06:54:53.963Z,26.98
2018-02-19T06:57:21.391Z,29.95
2018-02-19T06:59:48.811Z,29.10
2018-02-19T07:02:16.252Z,28.27
2018-02-19T07:04:43.679Z,30.75
2018-02-19T07:07:11.094Z,30.40
2018-02-19T07:09:38.543Z,27.33
2018-02-19T07:12:05.959Z,30.48
2018-02-19T07:14:33.387Z,29.35
2018-02-19T07:17:00.827Z,29.50
2018-02-19T07:19:28.242Z,29.75
2018-02-19T07:21:55.671Z,27.62
2018-02-19T07:24:23.106Z,26.77
2018-02-19T07:26:50.536Z,28.40
2018-02-19T07:29:17.964Z,28.50
2018-02-19T07:31:45.399Z,27.80
2018-02-19T07:34:12.844Z,29.25
2018-02-19T07:36:40.276Z,27.52
2018-02-19T07:39:07.706Z,26.35
2018-02-19T07:41:35.135Z,27.13
2018-02-19T07:44:02.565Z,26.62
2018-02-19T07:46:29.995Z,27.05
2018-02-19T07:48:57.415Z,29.25
2018-02-19T07:51:24.828Z,28.20
2018-02-19T07:53:52.268Z,25.62
2018-02-19T07:56:19.705Z,26.40
2018-02-19T07:58:47.127Z,25.95
2018-02-19T08:01:14.568Z,28.15
2018-02-19T08:03:41.991Z,27.55
2018-02-19T08:06:09.430Z,27.60
2018-02-19T08:08:36.864Z,28.52
2018-02-19T08:11:04.283Z,27.10
2018-02-19T08:13:31.707Z,27.65
2018-02-19T08:15:59.147Z,28.05
2018-02-19T08:18:26.571Z,26.83
2018-02-19T08:20:53.991Z,28.40
2018-02-19T08:23:21.435Z,26.35
2018-02-19T08:25:48.863Z,27.27
2018-02-19T08:28:16.303Z,30.73
2018-02-19T08:30:43.744Z,31.87
2018-02-19T08:33:11.167Z,30.83
2018-02-19T08:35:38.606Z,31.45
2018-02-19T08:38:06.044Z,33.97
2018-02-19T08:40:33.463Z,32.78
2018-02-19T08:43:00.886Z,34.35
2018-02-19T08:45:28.336Z,32.15
2018-02-19T08:47:55.763Z,33.97
2018-02-19T08:50:23.187Z,31.20
2018-02-19T08:52:50.630Z,27.87
2018-02-19T08:55:18.054Z,28.90
2018-02-19T08:57:45.470Z,29.55
2018-02-19T09:00:12.906Z,27.85
2018-02-19T09:02:40.342Z,28.35
2018-02-19T09:05:07.770Z,26.35
2018-02-19T09:07:35.208Z,30.90
2018-02-19T09:10:02.626Z,34.15
2018-02-19T09:12:30.067Z,34.47
2018-02-19T09:14:57.490Z,31.73
2018-02-19T09:17:24.925Z,32.47
2018-02-19T09:19:52.359Z,31.50
2018-02-19T09:22:19.783Z,32.10
2018-02-19T09:24:47.222Z,31.00
2018-02-19T09:27:14.672Z,32.78
2018-02-19T09:29:42.111Z,33.20
2018-02-19T09:32:09.543Z,34.55
2018-02-19T09:34:36.979Z,34.38
2018-02-19T09:37:04.419Z,34.17
2018-02-19T09:39:31.872Z,33.17
2018-02-19T09:41:59.307Z,32.17
2018-02-19T09:44:26.731Z,35.63
2018-02-19T09:46:54.180Z,34.78
2018-02-19T09:49:21.603Z,33.25
2018-02-19T09:51:49.035Z,33.70
2018-02-19T09:54:16.481Z,32.83
2018-02-19T09:56:43.900Z,33.75
2018-02-19T09:59:11.319Z,34.53
2018-02-19T10:01:38.771Z,29.98
2018-02-19T10:04:06.203Z,34.92
2018-02-19T10:06:33.619Z,34.35
2018-02-19T10:09:01.059Z,32.97
2018-02-19T10:11:29.306Z,32.67
2018-02-19T10:13:56.744Z,32.20
2018-02-19T10:16:24.406Z,31.30
2018-02-19T10:18:51.816Z,31.00
2018-02-19T10:21:19.257Z,31.23
2018-02-19T10:23:46.707Z,34.75
2018-02-19T10:26:14.143Z,32.65
2018-02-19T10:28:41.599Z,30.55
2018-02-19T10:31:09.027Z,31.48
2018-02-19T10:33:36.467Z,31.95
2018-02-19T10:36:03.913Z,31.02
2018-02-19T10:38:31.326Z,33.17
2018-02-19T10:40:59.093Z,34.28
2018-02-19T10:43:26.541Z,32.40
2018-02-19T10:45:53.959Z,33.10
2018-02-19T10:48:21.387Z,32.63
2018-02-19T10:50:48.801Z,34.15
2018-02-19T10:53:16.262Z,32.65
2018-02-19T10:55:43.688Z,33.08
2018-02-19T10:58:11.126Z,33.67
2018-02-19T11:00:44.111Z,33.63
2018-02-19T11:03:11.550Z,30.83
2018-02-19T11:05:39.000Z,35.67
2018-02-19T11:08:06.419Z,35.47
2018-02-19T11:10:33.862Z,32.47
2018-02-19T11:13:01.291Z,31.37
2018-02-19T11:15:28.720Z,32.75
2018-02-19T11:17:56.161Z,32.25
2018-02-19T11:20:23.593Z,34.33
2018-02-19T11:22:51.030Z,32.00
2018-02-19T11:25:18.471Z,35.33
2018-02-19T11:27:45.909Z,31.10
2018-02-19T11:30:13.345Z,31.92
2018-02-19T11:32:40.771Z,31.35
2018-02-19T11:35:08.200Z,32.40
2018-02-19T11:37:35.632Z,32.88
2018-02-19T11:40:03.112Z,31.42
2018-02-19T11:42:30.596Z,32.08
2018-02-19T11:44:58.022Z,33.13
2018-02-19T11:47:25.465Z,32.10
2018-02-19T11:49:52.895Z,30.70
2018-02-19T11:52:20.329Z,32.92
2018-02-19T11:54:47.763Z,31.42
2018-02-19T11:57:15.199Z,28.40
2018-02-19T11:59:42.615Z,31.25
2018-02-19T12:02:10.065Z,30.42
2018-02-19T12:04:37.496Z,30.67
2018-02-19T12:07:04.936Z,29.92
2018-02-19T12:09:32.386Z,31.62
2018-02-19T12:11:59.810Z,30.20
2018-02-19T12:14:27.249Z,30.60
2018-02-19T12:16:54.657Z,29.87
2018-02-19T12:19:22.156Z,29.33
2018-02-19T12:21:49.576Z,29.52
2018-02-19T12:24:17.011Z,29.77
2018-02-19T12:26:44.435Z,30.55
2018-02-19T12:29:11.858Z,31.60
2018-02-19T12:31:39.295Z,32.83
2018-02-19T12:34:06.720Z,32.40
2018-02-19T12:36:34.145Z,31.52
2018-02-19T12:39:01.583Z,31.95
2018-02-19T12:41:29.020Z,29.60
2018-02-19T12:43:56.447Z,30.77
2018-02-19T12:46:23.892Z,31.67
2018-02-19T12:48:51.312Z,30.27
2018-02-19T12:51:18.747Z,30.77
2018-02-19T12:53:46.208Z,30.80
2018-02-19T12:56:13.619Z,32.95
2018-02-19T12:58:41.047Z,33.10
2018-02-19T13:01:08.488Z,28.90
2018-02-19T13:03:35.909Z,31.50
2018-02-19T13:06:03.336Z,32.30
2018-02-19T13:08:30.779Z,32.55
2018-02-19T13:10:58.202Z,31.23
2018-02-19T13:13:25.627Z,31.30
2018-02-19T13:15:53.079Z,30.98
2018-02-19T13:18:20.501Z,34.55
2018-02-19T13:20:47.921Z,34.70
2018-02-19T13:23:15.363Z,32.83
2018-02-19T13:25:42.787Z,38.15
2018-02-19T13:28:10.211Z,30.77
2018-02-19T13:30:37.647Z,33.30
2018-02-19T13:33:05.075Z,35.08
2018-02-19T13:35:32.499Z,33.90
2018-02-19T13:37:59.935Z,33.60
2018-02-19T13:40:27.364Z,32.92
2018-02-19T13:42:54.796Z,31.05
2018-02-19T13:45:22.230Z,33.97
2018-02-19T13:47:49.646Z,33.13
2018-02-19T13:50:17.076Z,34.05
2018-02-19T13:52:44.507Z,33.90
2018-02-19T13:55:11.930Z,34.17
2018-02-19T13:57:39.368Z,31.77
2018-02-19T14:00:06.794Z,34.00
2018-02-19T14:02:34.227Z,32.05
2018-02-19T14:05:01.668Z,34.97
2018-02-19T14:07:29.303Z,35.10
2018-02-19T14:09:56.725Z,36.17
2018-02-19T14:12:24.172Z,39.53
2018-02-19T14:14:51.599Z,34.70
2018-02-19T14:17:19.034Z,36.67
2018-02-19T14:19:46.467Z,37.33
2018-02-19T14:22:13.896Z,36.55
2018-02-19T14:24:41.350Z,36.10
2018-02-19T14:27:08.792Z,36.75
2018-02-19T14:29:36.234Z,34.45
2018-02-19T14:32:03.644Z,36.53
2018-02-19T14:34:31.081Z,33.72
2018-02-19T14:36:58.532Z,36.83
2018-02-19T14:39:25.963Z,36.10
2018-02-19T14:41:53.411Z,36.72
2018-02-19T14:44:20.872Z,39.28
2018-02-19T14:46:48.311Z,36.58
2018-02-19T14:49:15.756Z,36.08
2018-02-19T14:51:43.236Z,38.08
2018-02-19T14:54:10.690Z,34.35
2018-02-19T14:56:38.147Z,36.75
2018-02-19T14:59:05.646Z,40.35
2018-02-19T15:01:33.075Z,40.10
2018-02-19T15:04:00.516Z,40.12
2018-02-19T15:06:28.059Z,38.60
2018-02-19T15:08:55.595Z,37.67
2018-02-19T15:11:23.056Z,38.63
2018-02-19T15:13:50.640Z,39.10
2018-02-19T15:16:18.173Z,37.65
2018-02-19T15:18:45.772Z,38.05
2018-02-19T15:21:13.271Z,40.17
2018-02-19T15:23:40.935Z,40.03
2018-02-19T15:26:08.411Z,36.75
2018-02-19T15:28:35.928Z,41.15
2018-02-19T15:31:03.386Z,40.20
2018-02-19T15:33:30.832Z,39.53
2018-02-19T15:35:58.266Z,40.80
2018-02-19T15:38:25.708Z,40.20
2018-02-19T15:40:53.244Z,42.03
2018-02-19T15:43:20.686Z,38.88
2018-02-19T15:45:48.119Z,39.28
2018-02-19T15:48:15.554Z,38.38
2018-02-19T15:50:42.979Z,36.83
2018-02-19T15:53:10.411Z,40.38
2018-02-19T15:55:37.851Z,40.55
2018-02-19T15:58:05.299Z,37.15
2018-02-19T16:00:32.817Z,38.90
2018-02-19T16:03:00.263Z,37.08
2018-02-19T16:05:27.655Z,39.05
2018-02-19T16:07:55.143Z,38.33
2018-02-19T16:10:22.576Z,37.10
2018-02-19T16:12:50.183Z,37.63
2018-02-19T16:15:17.651Z,40.78
2018-02-19T16:17:45.089Z,38.53
2018-02-19T16:20:12.521Z,41.40
2018-02-19T16:22:39.958Z,40.63
2018-02-19T16:25:07.403Z,42.05
2018-02-19T16:27:34.839Z,39.47
2018-02-19T16:30:02.296Z,38.22
2018-02-19T16:32:29.728Z,40.05
2018-02-19T16:34:57.187Z,42.20
2018-02-19T16:37:24.606Z,41.95
2018-02-19T16:39:52.081Z,42.90
2018-02-19T16:42:19.470Z,39.47
2018-02-19T16:44:46.927Z,43.40
2018-02-19T16:47:14.360Z,42.20
2018-02-19T16:49:41.883Z,40.35
2018-02-19T16:52:09.374Z,43.65
2018-02-19T16:54:36.831Z,41.22
2018-02-19T16:57:04.346Z,40.00
2018-02-19T16:59:31.820Z,41.10
2018-02-19T17:01:59.239Z,41.13
2018-02-19T17:04:26.686Z,50.40
2018-02-19T17:06:54.128Z,41.30
2018-02-19T17:09:21.615Z,38.40
2018-02-19T17:11:49.048Z,38.88
2018-02-19T17:14:16.554Z,40.17
2018-02-19T17:16:43.996Z,39.53
2018-02-19T17:19:11.428Z,38.60
2018-02-19T17:21:38.866Z,38.10
2018-02-19T17:24:06.299Z,37.70
2018-02-19T17:26:33.722Z,39.88
2018-02-19T17:29:01.163Z,39.50
2018-02-19T17:31:28.624Z,40.38
2018-02-19T17:33:56.043Z,42.67
2018-02-19T17:36:23.438Z,40.97
2018-02-19T17:38:50.903Z,40.63
2018-02-19T17:41:18.355Z,42.00
2018-02-19T17:43:45.818Z,40.88
2018-02-19T17:46:13.248Z,42.35
2018-02-19T17:48:40.999Z,39.63
2018-02-19T17:51:08.884Z,40.30
2018-02-19T17:53:36.378Z,41.58
2018-02-19T17:56:03.803Z,41.72
2018-02-19T17:58:31.279Z,42.85
2018-02-19T18:00:58.699Z,42.25
2018-02-19T18:03:26.143Z,43.28
2018-02-19T18:05:53.639Z,40.88
2018-02-19T18:08:21.058Z,40.60
2018-02-19T18:10:48.487Z,42.58
2018-02-19T18:13:15.960Z,41.03
2018-02-19T18:15:43.391Z,40.90
2018-02-19T18:18:10.909Z,42.97
2018-02-19T18:20:38.356Z,39.45
2018-02-19T18:23:05.807Z,42.42
2018-02-19T18:25:33.239Z,41.08
2018-02-19T18:28:00.703Z,42.83
2018-02-19T18:30:28.130Z,38.50
2018-02-19T18:32:55.557Z,41.65
2018-02-19T18:35:23.038Z,43.67
2018-02-19T18:37:50.462Z,42.90
2018-02-19T18:40:17.892Z,40.70
2018-02-19T18:42:45.335Z,43.20
2018-02-19T18:45:12.831Z,43.10
2018-02-19T18:47:40.275Z,42.00
2018-02-19T18:50:07.724Z,42.30
2018-02-19T18:52:35.202Z,40.70
2018-02-19T18:55:02.620Z,39.28
2018-02-19T18:57:30.058Z,43.03
2018-02-19T18:59:57.495Z,40.17
2018-02-19T19:02:24.910Z,44.85
2018-02-19T19:04:52.347Z,43.05
2018-02-19T19:07:31.451Z,42.30
2018-02-19T19:10:10.522Z,42.78
2018-02-19T19:12:37.950Z,41.47
2018-02-19T19:15:05.377Z,41.42
2018-02-19T19:17:32.823Z,40.08
2018-02-19T19:20:00.247Z,41.03
2018-02-19T19:22:27.669Z,41.55
2018-02-19T19:24:55.110Z,43.80
2018-02-19T19:27:22.529Z,39.67
2018-02-19T19:29:49.992Z,42.92
2018-02-19T19:32:17.452Z,39.70
2018-02-19T19:34:44.960Z,42.78
2018-02-19T19:37:12.420Z,39.67
2018-02-19T19:39:39.855Z,40.67
2018-02-19T19:42:07.308Z,42.80
2018-02-19T19:44:34.738Z,40.35
2018-02-19T19:47:02.174Z,42.05
2018-02-19T19:49:29.619Z,42.10
2018-02-19T19:51:57.083Z,39.95
2018-02-19T19:54:24.510Z,41.92
2018-02-19T19:56:51.947Z,39.85
2018-02-19T19:59:19.379Z,41.88
2018-02-19T20:01:46.818Z,40.75
2018-02-19T20:04:14.259Z,42.47
2018-02-19T20:06:41.704Z,42.65
2018-02-19T20:09:09.253Z,43.60
2018-02-19T20:11:36.711Z,41.35
2018-02-19T20:14:04.222Z,40.12
2018-02-19T20:16:31.658Z,44.92
2018-02-19T20:18:59.119Z,43.28
2018-02-19T20:21:26.551Z,42.78
2018-02-19T20:23:54.009Z,41.47
2018-02-19T20:26:21.435Z,42.33
2018-02-19T20:28:48.859Z,43.85
2018-02-19T20:31:16.380Z,43.28
2018-02-19T20:33:43.813Z,42.45
2018-02-19T20:36:11.255Z,44.83
2018-02-19T20:38:38.703Z,44.28
2018-02-19T20:41:06.134Z,46.30
2018-02-19T20:43:33.595Z,43.28
2018-02-19T20:46:01.030Z,41.80
2018-02-19T20:48:28.474Z,42.83
2018-02-19T20:50:55.903Z,44.30
2018-02-19T20:53:23.349Z,43.22
2018-02-19T20:55:50.795Z,48.63
2018-02-19T20:58:18.247Z,46.13
2018-02-19T21:00:45.699Z,45.30
2018-02-19T21:03:13.131Z,44.88
2018-02-19T21:05:40.588Z,45.40
2018-02-19T21:08:08.035Z,45.97
2018-02-19T21:10:35.464Z,44.53
2018-02-19T21:13:02.891Z,44.50
2018-02-19T21:15:30.330Z,45.28
2018-02-19T21:17:57.763Z,45.35
2018-02-19T21:20:25.195Z,45.70
2018-02-19T21:22:52.626Z,44.05
2018-02-19T21:25:20.098Z,45.38
2018-02-19T21:27:47.556Z,44.88
2018-02-19T21:30:14.996Z,44.78
2018-02-19T21:32:42.458Z,45.53
2018-02-19T21:35:09.891Z,49.22
2018-02-19T21:37:37.320Z,47.58
2018-02-19T21:40:04.776Z,47.78
2018-02-19T21:42:32.288Z,45.33
2018-02-19T21:44:59.710Z,47.50
2018-02-19T21:47:27.201Z,48.00
2018-02-19T21:49:54.674Z,50.00
2018-02-19T21:52:22.147Z,46.67
2018-02-19T21:54:49.587Z,48.03
2018-02-19T21:57:17.019Z,49.03
2018-02-19T21:59:44.439Z,49.25
2018-02-19T22:02:11.883Z,45.38
2018-02-19T22:04:39.317Z,46.22
2018-02-19T22:07:06.788Z,45.88
2018-02-19T22:09:34.251Z,47.92
2018-02-19T22:12:01.690Z,47.33
2018-02-19T22:14:29.126Z,47.67
2018-02-19T22:16:56.556Z,52.10
2018-02-19T22:19:24.087Z,50.08
2018-02-19T22:21:51.502Z,46.65
2018-02-19T22:24:18.980Z,44.17
2018-02-19T22:26:46.416Z,47.88
2018-02-19T22:29:13.871Z,48.13
2018-02-19T22:31:41.299Z,49.05
2018-02-19T22:34:08.740Z,47.92
2018-02-19T22:36:36.173Z,46.90
2018-02-19T22:39:03.627Z,47.62
2018-02-19T22:41:31.139Z,48.55
2018-02-19T22:43:58.563Z,46.53
2018-02-19T22:46:25.994Z,49.58
2018-02-19T22:48:53.431Z,46.08
2018-02-19T22:51:20.874Z,49.45
2018-02-19T22:53:48.308Z,45.35
2018-02-19T22:56:15.757Z,52.22
2018-02-19T22:58:43.196Z,50.85
2018-02-19T23:01:10.614Z,50.12
2018-02-19T23:03:38.066Z,49.95
2018-02-19T23:06:05.491Z,45.45
2018-02-19T23:08:32.923Z,49.30
2018-02-19T23:11:00.363Z,46.37
2018-02-19T23:13:27.796Z,47.00
2018-02-19T23:15:55.224Z,48.25
2018-02-19T23:18:22.673Z,49.10
2018-02-19T23:20:50.108Z,49.03
2018-02-19T23:23:17.530Z,50.65
2018-02-19T23:25:44.970Z,46.75
2018-02-19T23:28:12.399Z,46.97
2018-02-19T23:30:39.830Z,48.92
2018-02-19T23:33:07.267Z,48.25
2018-02-19T23:35:34.686Z,47.05
2018-02-19T23:38:02.117Z,48.85
2018-02-19T23:40:29.591Z,50.88
2018-02-19T23:42:57.011Z,45.70
2018-02-19T23:45:24.459Z,46.78
2018-02-19T23:47:51.991Z,47.42
2018-02-19T23:50:19.427Z,46.80
2018-02-19T23:52:46.876Z,47.47
2018-02-19T23:55:14.327Z,45.63
2018-02-19T23:57:41.747Z,48.30
